Port Talbot, United Kingdom
Current Conditions -  °F | °C
As of 7:50 PM on Saturday 22 Nov 2014 (Local Time) from EGDX Reporting Station
Broken Clouds Broken Clouds  
Wind Chill: 50°   Ceiling: 3700
Heat Index: 50°   Visibility: 6mi
Dew Point: 48°   Wind: 3mph
Humidity: 94%   Direction: 350°N
Pressure: 29.94"   Gusts: NA
Location:  51.6°N, 3.78°W
Report Text: EGDX 221950Z AUTO 35003KT 9999 FEW019/// BKN037/// BKN160/// 10/09 Q1014
Loading
Personal Weather Stations






























Interactive Weather Map New forecast layout! Learn more

10-Day Weather Forecast

Advertisements
Track Severe Weather on mobile